createdAt,value
2018-08-30T00:00:26.291Z,1008.98
2018-08-30T00:01:25.967Z,1009.01
2018-08-30T00:02:25.957Z,1009.00
2018-08-30T00:03:25.961Z,1009.18
2018-08-30T00:04:25.937Z,1009.11
2018-08-30T00:05:26.020Z,1009.17
2018-08-30T00:06:26.517Z,1009.10
2018-08-30T00:07:25.161Z,1009.13
2018-08-30T00:08:26.303Z,1009.13
2018-08-30T00:09:25.898Z,1009.20
2018-08-30T00:10:25.910Z,1009.25
2018-08-30T00:11:26.036Z,1009.21
2018-08-30T00:12:25.952Z,1009.27
2018-08-30T00:13:25.971Z,1009.30
2018-08-30T00:14:25.950Z,1009.26
2018-08-30T00:15:26.223Z,1009.33
2018-08-30T00:16:25.809Z,1009.30
2018-08-30T00:17:25.794Z,1009.34
2018-08-30T00:18:25.882Z,1009.33
2018-08-30T00:19:25.988Z,1009.37
2018-08-30T00:20:25.808Z,1009.32
2018-08-30T00:21:24.785Z,1009.40
2018-08-30T00:22:25.758Z,1009.44
2018-08-30T00:23:25.994Z,1009.41
2018-08-30T00:24:25.984Z,1009.44
2018-08-30T00:25:25.742Z,1009.49
2018-08-30T00:26:26.165Z,1009.52
2018-08-30T00:27:25.689Z,1009.51
2018-08-30T00:28:25.679Z,1009.56
2018-08-30T00:29:25.667Z,1009.61
2018-08-30T00:30:25.798Z,1009.62
2018-08-30T00:31:24.934Z,1009.60
2018-08-30T00:32:25.668Z,1009.68
2018-08-30T00:33:25.703Z,1009.62
2018-08-30T00:34:25.615Z,1009.71
2018-08-30T00:35:25.685Z,1009.66
2018-08-30T00:36:24.873Z,1009.58
2018-08-30T00:37:25.861Z,1009.68
2018-08-30T00:38:25.648Z,1009.72
2018-08-30T00:39:25.661Z,1009.72
2018-08-30T00:40:25.947Z,1009.65
2018-08-30T00:41:25.629Z,1009.71
2018-08-30T00:42:25.532Z,1009.61
2018-08-30T00:43:25.522Z,1009.69
2018-08-30T00:44:25.510Z,1009.66
2018-08-30T00:45:25.525Z,1009.72
2018-08-30T00:46:24.488Z,1009.70
2018-08-30T00:47:25.576Z,1009.80
2018-08-30T00:48:25.465Z,1009.84
2018-08-30T00:49:24.609Z,1009.83
2018-08-30T00:50:24.443Z,1009.81
2018-08-30T00:51:24.480Z,1009.86
2018-08-30T00:52:25.431Z,1009.81
2018-08-30T00:53:25.414Z,1009.87
2018-08-30T00:54:25.413Z,1009.92
2018-08-30T00:55:25.401Z,1009.88
2018-08-30T00:56:25.413Z,1009.90
2018-08-30T00:57:25.819Z,1009.84
2018-08-30T00:58:25.446Z,1009.79
2018-08-30T00:59:25.884Z,1009.83
2018-08-30T01:00:25.614Z,1009.82
2018-08-30T01:01:25.432Z,1009.83
2018-08-30T01:02:25.315Z,1009.82
2018-08-30T01:03:24.317Z,1009.84
2018-08-30T01:04:25.294Z,1009.81
2018-08-30T01:05:25.282Z,1009.83
2018-08-30T01:06:25.385Z,1009.85
2018-08-30T01:07:25.273Z,1009.83
2018-08-30T01:08:25.250Z,1009.85
2018-08-30T01:09:25.249Z,1009.88
2018-08-30T01:10:25.230Z,1009.92
2018-08-30T01:11:25.227Z,1009.90
2018-08-30T01:12:25.256Z,1009.93
2018-08-30T01:13:25.202Z,1009.98
2018-08-30T01:14:25.189Z,1009.99
2018-08-30T01:15:25.181Z,1009.99
2018-08-30T01:16:25.569Z,1009.99
2018-08-30T01:17:25.238Z,1009.97
2018-08-30T01:18:25.149Z,1010.14
2018-08-30T01:19:25.413Z,1010.01
2018-08-30T01:20:25.230Z,1010.08
2018-08-30T01:21:25.193Z,1010.05
2018-08-30T01:22:25.400Z,1010.03
2018-08-30T01:23:25.091Z,1009.99
2018-08-30T01:24:25.164Z,1010.04
2018-08-30T01:25:25.348Z,1010.02
2018-08-30T01:26:25.179Z,1010.04
2018-08-30T01:27:25.202Z,1010.08
2018-08-30T01:28:25.056Z,1010.08
2018-08-30T01:29:25.028Z,1010.12
2018-08-30T01:30:25.285Z,1010.08
2018-08-30T01:31:24.005Z,1010.09
2018-08-30T01:32:25.024Z,1010.08
2018-08-30T01:33:24.993Z,1010.09
2018-08-30T01:34:25.250Z,1010.11
2018-08-30T01:35:25.086Z,1010.09
2018-08-30T01:36:24.952Z,1010.13
2018-08-30T01:37:24.981Z,1010.14
2018-08-30T01:38:24.939Z,1010.10
2018-08-30T01:39:25.009Z,1010.14
2018-08-30T01:40:25.017Z,1010.08
2018-08-30T01:41:25.426Z,1010.13
2018-08-30T01:42:24.923Z,1010.15
2018-08-30T01:43:23.895Z,1010.16
2018-08-30T01:44:24.866Z,1010.14
2018-08-30T01:45:24.875Z,1010.15
2018-08-30T01:46:24.887Z,1010.18
2018-08-30T01:47:24.928Z,1010.22
2018-08-30T01:48:24.840Z,1010.23
2018-08-30T01:49:24.834Z,1010.27
2018-08-30T01:50:24.867Z,1010.28
2018-08-30T01:51:24.804Z,1010.31
2018-08-30T01:52:25.078Z,1010.29
2018-08-30T01:53:24.782Z,1010.30
2018-08-30T01:54:24.757Z,1010.26
2018-08-30T01:55:25.382Z,1010.28
2018-08-30T01:56:23.754Z,1010.31
2018-08-30T01:57:25.034Z,1010.32
2018-08-30T01:58:24.728Z,1010.28
2018-08-30T01:59:23.733Z,1010.29
2018-08-30T02:00:24.695Z,1010.25
2018-08-30T02:01:24.956Z,1010.29
2018-08-30T02:02:24.964Z,1010.35
2018-08-30T02:03:24.789Z,1010.30
2018-08-30T02:04:24.655Z,1010.29
2018-08-30T02:05:24.740Z,1010.32
2018-08-30T02:06:24.631Z,1010.31
2018-08-30T02:07:24.825Z,1010.33
2018-08-30T02:08:24.612Z,1010.36
2018-08-30T02:09:24.901Z,1010.31
2018-08-30T02:10:24.593Z,1010.40
2018-08-30T02:11:24.592Z,1010.43
2018-08-30T02:12:23.567Z,1010.39
2018-08-30T02:13:24.728Z,1010.45
2018-08-30T02:14:24.557Z,1010.43
2018-08-30T02:15:24.628Z,1010.48
2018-08-30T02:16:24.528Z,1010.48
2018-08-30T02:17:24.514Z,1010.46
2018-08-30T02:18:24.554Z,1010.44
2018-08-30T02:19:24.497Z,1010.50
2018-08-30T02:20:24.599Z,1010.51
2018-08-30T02:21:24.957Z,1010.53
2018-08-30T02:22:24.895Z,1010.59
2018-08-30T02:23:24.491Z,1010.60
2018-08-30T02:24:24.443Z,1010.57
2018-08-30T02:25:23.493Z,1010.62
2018-08-30T02:26:24.560Z,1010.62
2018-08-30T02:27:24.417Z,1010.57
2018-08-30T02:28:24.441Z,1010.64
2018-08-30T02:29:24.505Z,1010.67
2018-08-30T02:30:23.705Z,1010.67
2018-08-30T02:31:24.390Z,1010.63
2018-08-30T02:32:24.354Z,1010.67
2018-08-30T02:33:24.646Z,1010.67
2018-08-30T02:34:24.742Z,1010.66
2018-08-30T02:35:24.325Z,1010.72
2018-08-30T02:36:24.323Z,1010.82
2018-08-30T02:37:24.410Z,1010.71
2018-08-30T02:38:23.295Z,1010.72
2018-08-30T02:39:24.311Z,1010.70
2018-08-30T02:40:24.646Z,1010.69
2018-08-30T02:41:24.297Z,1010.63
2018-08-30T02:42:23.372Z,1010.68
2018-08-30T02:43:24.261Z,1010.68
2018-08-30T02:44:24.255Z,1010.73
2018-08-30T02:45:23.606Z,1010.67
2018-08-30T02:46:24.338Z,1010.68
2018-08-30T02:47:24.250Z,1010.72
2018-08-30T02:48:24.290Z,1010.70
2018-08-30T02:49:23.459Z,1010.70
2018-08-30T02:50:24.318Z,1010.73
2018-08-30T02:51:24.277Z,1010.72
2018-08-30T02:52:24.397Z,1010.72
2018-08-30T02:53:24.157Z,1010.72
2018-08-30T02:54:24.130Z,1010.70
2018-08-30T02:55:24.404Z,1010.77
2018-08-30T02:56:24.121Z,1010.76
2018-08-30T02:57:24.366Z,1010.80
2018-08-30T02:58:24.155Z,1010.75
2018-08-30T02:59:24.182Z,1010.74
2018-08-30T03:00:24.651Z,1010.77
2018-08-30T03:01:23.058Z,1010.69
2018-08-30T03:02:24.038Z,1010.76
2018-08-30T03:03:24.045Z,1010.74
2018-08-30T03:04:24.027Z,1010.75
2018-08-30T03:05:24.151Z,1010.72
2018-08-30T03:06:23.997Z,1010.75
2018-08-30T03:07:23.990Z,1010.73
2018-08-30T03:08:24.237Z,1010.79
2018-08-30T03:09:23.971Z,1010.72
2018-08-30T03:10:24.242Z,1010.75
2018-08-30T03:11:24.245Z,1010.70
2018-08-30T03:12:23.930Z,1010.72
2018-08-30T03:13:23.918Z,1010.73
2018-08-30T03:14:23.920Z,1010.74
2018-08-30T03:15:24.047Z,1010.71
2018-08-30T03:16:23.891Z,1010.72
2018-08-30T03:17:23.897Z,1010.75
2018-08-30T03:18:23.867Z,1010.79
2018-08-30T03:19:23.310Z,1010.75
2018-08-30T03:20:23.876Z,1010.76
2018-08-30T03:21:23.999Z,1010.79
2018-08-30T03:22:23.829Z,1010.79
2018-08-30T03:23:23.814Z,1010.81
2018-08-30T03:24:23.858Z,1010.78
2018-08-30T03:25:24.094Z,1010.83
2018-08-30T03:26:24.018Z,1010.85
2018-08-30T03:27:22.826Z,1010.83
2018-08-30T03:28:24.018Z,1010.81
2018-08-30T03:29:22.759Z,1010.85
2018-08-30T03:30:24.521Z,1010.85
2018-08-30T03:31:23.755Z,1010.81
2018-08-30T03:32:23.719Z,1010.87
2018-08-30T03:33:23.714Z,1010.84
2018-08-30T03:34:23.715Z,1010.89
2018-08-30T03:35:23.701Z,1010.94
2018-08-30T03:36:23.722Z,1010.96
2018-08-30T03:37:23.670Z,1010.95
2018-08-30T03:38:23.760Z,1010.91
2018-08-30T03:39:23.719Z,1010.95
2018-08-30T03:40:23.914Z,1010.95
2018-08-30T03:41:23.734Z,1010.97
2018-08-30T03:42:23.704Z,1010.96
2018-08-30T03:43:23.593Z,1010.99
2018-08-30T03:44:23.588Z,1011.09
2018-08-30T03:45:23.588Z,1011.04
2018-08-30T03:46:23.598Z,1011.09
2018-08-30T03:47:22.571Z,1011.06
2018-08-30T03:48:23.542Z,1011.04
2018-08-30T03:49:23.909Z,1011.08
2018-08-30T03:50:23.051Z,1011.10
2018-08-30T03:51:23.707Z,1011.09
2018-08-30T03:52:22.531Z,1011.06
2018-08-30T03:53:23.761Z,1011.07
2018-08-30T03:54:23.495Z,1011.10
2018-08-30T03:55:23.798Z,1011.02
2018-08-30T03:56:23.493Z,1011.00
2018-08-30T03:57:23.464Z,1011.04
2018-08-30T03:58:23.436Z,1011.03
2018-08-30T03:59:23.428Z,1011.12
2018-08-30T04:00:22.707Z,1011.07
2018-08-30T04:01:23.564Z,1011.08
2018-08-30T04:02:23.438Z,1011.04
2018-08-30T04:03:23.507Z,1011.03
2018-08-30T04:04:23.488Z,1011.08
2018-08-30T04:05:22.365Z,1011.06
2018-08-30T04:06:23.485Z,1011.01
2018-08-30T04:07:23.615Z,1011.10
2018-08-30T04:08:23.330Z,1011.08
2018-08-30T04:09:23.939Z,1011.09
2018-08-30T04:10:23.332Z,1011.16
2018-08-30T04:11:23.295Z,1011.17
2018-08-30T04:12:23.298Z,1011.13
2018-08-30T04:13:23.552Z,1011.15
2018-08-30T04:14:23.804Z,1011.18
2018-08-30T04:15:23.431Z,1011.15
2018-08-30T04:16:23.253Z,1011.25
2018-08-30T04:17:23.266Z,1011.22
2018-08-30T04:18:23.223Z,1011.26
2018-08-30T04:19:23.580Z,1011.24
2018-08-30T04:20:23.229Z,1011.30
2018-08-30T04:21:23.296Z,1011.29
2018-08-30T04:22:23.314Z,1011.29
2018-08-30T04:23:23.168Z,1011.38
2018-08-30T04:24:23.177Z,1011.33
2018-08-30T04:25:23.178Z,1011.33
2018-08-30T04:26:23.208Z,1011.33
2018-08-30T04:27:22.398Z,1011.33
2018-08-30T04:28:23.447Z,1011.34
2018-08-30T04:29:23.221Z,1011.33
2018-08-30T04:30:23.106Z,1011.36
2018-08-30T04:31:23.318Z,1011.38
2018-08-30T04:32:23.102Z,1011.37
2018-08-30T04:33:23.181Z,1011.38
2018-08-30T04:34:23.061Z,1011.41
2018-08-30T04:35:23.194Z,1011.43
2018-08-30T04:36:23.294Z,1011.42
2018-08-30T04:37:23.080Z,1011.39
2018-08-30T04:38:23.287Z,1011.41
2018-08-30T04:39:23.079Z,1011.41
2018-08-30T04:40:23.120Z,1011.43
2018-08-30T04:41:22.975Z,1011.46
2018-08-30T04:42:23.235Z,1011.46
2018-08-30T04:43:22.967Z,1011.48
2018-08-30T04:44:23.231Z,1011.48
2018-08-30T04:45:23.089Z,1011.51
2018-08-30T04:46:22.925Z,1011.49
2018-08-30T04:47:22.929Z,1011.50
2018-08-30T04:48:22.900Z,1011.58
2018-08-30T04:49:21.903Z,1011.52
2018-08-30T04:50:21.886Z,1011.51
2018-08-30T04:51:22.866Z,1011.52
2018-08-30T04:52:22.872Z,1011.54
2018-08-30T04:53:22.852Z,1011.60
2018-08-30T04:54:23.137Z,1011.57
2018-08-30T04:55:23.042Z,1011.55
2018-08-30T04:56:22.843Z,1011.62
2018-08-30T04:57:22.828Z,1011.64
2018-08-30T04:58:22.795Z,1011.64
2018-08-30T04:59:22.790Z,1011.63
2018-08-30T05:00:22.786Z,1011.63
2018-08-30T05:01:22.779Z,1011.58
2018-08-30T05:02:22.767Z,1011.62
2018-08-30T05:03:22.747Z,1011.61
2018-08-30T05:04:22.725Z,1011.63
2018-08-30T05:05:21.717Z,1011.67
2018-08-30T05:06:22.908Z,1011.64
2018-08-30T05:07:22.769Z,1011.69
2018-08-30T05:08:23.349Z,1011.75
2018-08-30T05:09:22.690Z,1011.73
2018-08-30T05:10:22.682Z,1011.76
2018-08-30T05:11:22.653Z,1011.77
2018-08-30T05:12:21.760Z,1011.77
2018-08-30T05:13:22.699Z,1011.81
2018-08-30T05:14:22.653Z,1011.84
2018-08-30T05:15:22.630Z,1011.83
2018-08-30T05:16:23.070Z,1011.79
2018-08-30T05:17:22.600Z,1011.81
2018-08-30T05:18:22.610Z,1011.82
2018-08-30T05:19:22.686Z,1011.80
2018-08-30T05:20:22.582Z,1011.84
2018-08-30T05:21:22.696Z,1011.83
2018-08-30T05:22:22.657Z,1011.81
2018-08-30T05:23:21.866Z,1011.80
2018-08-30T05:24:22.557Z,1011.83
2018-08-30T05:25:22.551Z,1011.86
2018-08-30T05:26:22.525Z,1011.81
2018-08-30T05:27:22.485Z,1011.83
2018-08-30T05:28:21.602Z,1011.88
2018-08-30T05:29:22.474Z,1011.88
2018-08-30T05:30:22.590Z,1011.86
2018-08-30T05:31:22.823Z,1011.91
2018-08-30T05:32:22.708Z,1011.96
2018-08-30T05:33:22.543Z,1011.93
2018-08-30T05:34:22.433Z,1011.98
2018-08-30T05:35:22.428Z,1011.99
2018-08-30T05:38:01.939Z,1011.93
2018-08-30T05:39:02.017Z,1011.97
2018-08-30T05:40:02.931Z,1012.01
2018-08-30T05:41:03.106Z,1011.97
2018-08-30T05:42:02.823Z,1011.98
2018-08-30T05:43:02.713Z,1012.01
2018-08-30T05:44:02.951Z,1012.02
2018-08-30T05:45:02.959Z,1012.00
2018-08-30T05:46:02.770Z,1012.06
2018-08-30T05:47:02.899Z,1012.10
2018-08-30T05:48:02.778Z,1012.07
2018-08-30T05:49:02.620Z,1012.11
2018-08-30T05:50:02.628Z,1012.08
2018-08-30T05:51:03.591Z,1012.10
2018-08-30T05:52:02.963Z,1012.15
2018-08-30T05:53:02.598Z,1012.12
2018-08-30T05:54:02.584Z,1012.12
2018-08-30T05:55:02.695Z,1012.17
2018-08-30T05:56:02.677Z,1012.15
2018-08-30T05:57:02.884Z,1012.15
2018-08-30T05:58:02.660Z,1012.16
2018-08-30T05:59:02.769Z,1012.18
2018-08-30T06:00:02.971Z,1012.16
2018-08-30T06:01:02.788Z,1012.17
2018-08-30T06:02:02.503Z,1012.23
2018-08-30T06:03:02.466Z,1012.21
2018-08-30T06:04:03.054Z,1012.18
2018-08-30T06:05:02.458Z,1012.23
2018-08-30T06:06:02.501Z,1012.26
2018-08-30T06:07:02.710Z,1012.27
2018-08-30T06:08:02.681Z,1012.22
2018-08-30T06:09:02.401Z,1012.21
2018-08-30T06:10:02.683Z,1012.25
2018-08-30T06:11:02.429Z,1012.28
2018-08-30T06:12:02.639Z,1012.26
2018-08-30T06:13:02.429Z,1012.21
2018-08-30T06:14:02.372Z,1012.22
2018-08-30T06:15:02.361Z,1012.17
2018-08-30T06:16:02.616Z,1012.23
2018-08-30T06:17:02.325Z,1012.24
2018-08-30T06:18:02.668Z,1012.24
2018-08-30T06:19:02.312Z,1012.23
2018-08-30T06:20:02.311Z,1012.28
2018-08-30T06:21:02.516Z,1012.25
2018-08-30T06:22:02.319Z,1012.29
2018-08-30T06:23:02.816Z,1012.28
2018-08-30T06:24:02.249Z,1012.30
2018-08-30T06:25:02.515Z,1012.31
2018-08-30T06:26:02.351Z,1012.32
2018-08-30T06:27:02.235Z,1012.33
2018-08-30T06:28:02.457Z,1012.32
2018-08-30T06:29:02.452Z,1012.34
2018-08-30T06:30:02.261Z,1012.36
2018-08-30T06:31:02.177Z,1012.33
2018-08-30T06:32:02.556Z,1012.37
2018-08-30T06:33:02.152Z,1012.29
2018-08-30T06:34:02.153Z,1012.30
2018-08-30T06:35:02.385Z,1012.29
2018-08-30T06:36:02.124Z,1012.38
2018-08-30T06:37:02.247Z,1012.36
2018-08-30T06:38:02.108Z,1012.37
2018-08-30T06:39:04.471Z,1012.33
2018-08-30T06:40:02.204Z,1012.33
2018-08-30T06:41:02.184Z,1012.33
2018-08-30T06:42:02.463Z,1012.31
2018-08-30T06:43:02.041Z,1012.36
2018-08-30T06:44:02.129Z,1012.34
2018-08-30T06:45:02.041Z,1012.34
2018-08-30T06:46:02.050Z,1012.36
2018-08-30T06:47:02.110Z,1012.38
2018-08-30T06:48:01.988Z,1012.36
2018-08-30T06:49:03.121Z,1012.38
2018-08-30T06:50:01.993Z,1012.37
2018-08-30T06:51:02.328Z,1012.41
2018-08-30T06:52:01.972Z,1012.42
2018-08-30T06:53:02.332Z,1012.42
2018-08-30T06:54:02.042Z,1012.36
2018-08-30T06:55:02.004Z,1012.41
2018-08-30T06:56:02.047Z,1012.44
2018-08-30T06:57:03.107Z,1012.47
2018-08-30T06:58:01.985Z,1012.47
2018-08-30T06:59:01.890Z,1012.50
2018-08-30T07:00:01.919Z,1012.50
2018-08-30T07:01:02.149Z,1012.48
2018-08-30T07:02:02.024Z,1012.53
2018-08-30T07:03:01.810Z,1012.52
2018-08-30T07:04:01.891Z,1012.50
2018-08-30T07:05:01.802Z,1012.45
2018-08-30T07:06:01.797Z,1012.48
2018-08-30T07:07:01.060Z,1012.49
2018-08-30T07:08:01.816Z,1012.49
2018-08-30T07:09:01.752Z,1012.48
2018-08-30T07:10:01.813Z,1012.52
2018-08-30T07:11:02.304Z,1012.51
2018-08-30T07:12:01.760Z,1012.50
2018-08-30T07:13:01.748Z,1012.50
2018-08-30T07:14:05.616Z,1012.52
2018-08-30T07:15:02.023Z,1012.57
2018-08-30T07:16:01.805Z,1012.52
2018-08-30T07:17:01.802Z,1012.54
2018-08-30T07:18:01.703Z,1012.58
2018-08-30T07:19:01.943Z,1012.62
2018-08-30T07:20:01.719Z,1012.63
2018-08-30T07:21:03.778Z,1012.61
2018-08-30T07:22:01.748Z,1012.68
2018-08-30T07:23:01.741Z,1012.69
2018-08-30T07:24:01.604Z,1012.67
2018-08-30T07:25:01.616Z,1012.68
2018-08-30T07:26:01.843Z,1012.70
2018-08-30T07:27:01.578Z,1012.70
2018-08-30T07:28:01.560Z,1012.71
2018-08-30T07:29:01.674Z,1012.69
2018-08-30T07:30:02.206Z,1012.73
2018-08-30T07:31:06.643Z,1012.74
2018-08-30T07:32:01.976Z,1012.78
2018-08-30T07:33:01.998Z,1012.77
2018-08-30T07:34:01.502Z,1012.79
2018-08-30T07:35:01.608Z,1012.81
2018-08-30T07:36:01.513Z,1012.78
2018-08-30T07:37:01.461Z,1012.79
2018-08-30T07:38:02.228Z,1012.82
2018-08-30T07:39:01.637Z,1012.85
2018-08-30T07:40:01.533Z,1012.82
2018-08-30T07:41:00.504Z,1012.79
2018-08-30T07:42:02.434Z,1012.80
2018-08-30T07:43:01.602Z,1012.82
2018-08-30T07:44:01.721Z,1012.87
2018-08-30T07:45:01.372Z,1012.85
2018-08-30T07:46:01.660Z,1012.89
2018-08-30T07:47:01.373Z,1012.96
2018-08-30T07:48:01.744Z,1013.03
2018-08-30T07:49:01.438Z,1012.99
2018-08-30T07:50:01.417Z,1012.99
2018-08-30T07:51:01.765Z,1012.96
2018-08-30T07:52:01.449Z,1013.05
2018-08-30T07:53:01.565Z,1013.07
2018-08-30T07:54:01.281Z,1013.02
2018-08-30T07:55:01.289Z,1013.06
2018-08-30T07:56:01.259Z,1013.08
2018-08-30T07:57:01.415Z,1013.10
2018-08-30T07:58:01.485Z,1013.12
2018-08-30T07:59:01.579Z,1013.12
2018-08-30T08:00:01.401Z,1013.13
2018-08-30T08:01:01.342Z,1013.19
2018-08-30T08:02:01.557Z,1013.21
2018-08-30T08:03:01.162Z,1013.15
2018-08-30T08:04:01.277Z,1013.16
2018-08-30T08:05:01.629Z,1013.17
2018-08-30T08:06:01.491Z,1013.20
2018-08-30T08:07:01.473Z,1013.24
2018-08-30T08:08:01.116Z,1013.20
2018-08-30T08:09:01.541Z,1013.17
2018-08-30T08:10:01.222Z,1013.27
2018-08-30T08:11:01.557Z,1013.29
2018-08-30T08:12:01.314Z,1013.26
2018-08-30T08:13:01.348Z,1013.24
2018-08-30T08:14:01.091Z,1013.28
2018-08-30T08:15:01.202Z,1013.29
2018-08-30T08:16:01.054Z,1013.31
2018-08-30T08:17:01.148Z,1013.31
2018-08-30T08:18:01.138Z,1013.29
2018-08-30T08:19:01.167Z,1013.30
2018-08-30T08:20:03.452Z,1013.28
2018-08-30T08:21:01.098Z,1013.28
2018-08-30T08:22:01.375Z,1013.33
2018-08-30T08:23:01.153Z,1013.30
2018-08-30T08:24:01.098Z,1013.30
2018-08-30T08:25:01.068Z,1013.31
2018-08-30T08:26:00.909Z,1013.32
2018-08-30T08:27:02.538Z,1013.37
2018-08-30T08:28:01.020Z,1013.33
2018-08-30T08:29:00.899Z,1013.39
2018-08-30T08:30:00.867Z,1013.37
2018-08-30T08:31:01.227Z,1013.33
2018-08-30T08:32:00.977Z,1013.37
2018-08-30T08:33:01.031Z,1013.44
2018-08-30T08:34:01.025Z,1013.42
2018-08-30T08:35:00.861Z,1013.38
2018-08-30T08:36:00.943Z,1013.42
2018-08-30T08:37:00.839Z,1013.40
2018-08-30T08:38:00.790Z,1013.38
2018-08-30T08:39:01.159Z,1013.38
2018-08-30T08:40:00.856Z,1013.40
2018-08-30T08:41:00.760Z,1013.37
2018-08-30T08:42:00.750Z,1013.42
2018-08-30T08:43:00.801Z,1013.36
2018-08-30T08:44:00.740Z,1013.39
2018-08-30T08:45:01.378Z,1013.41
2018-08-30T08:46:00.717Z,1013.41
2018-08-30T08:47:00.823Z,1013.41
2018-08-30T08:48:00.804Z,1013.46
2018-08-30T08:49:00.756Z,1013.43
2018-08-30T08:50:00.978Z,1013.40
2018-08-30T08:51:01.224Z,1013.45
2018-08-30T08:52:00.662Z,1013.44
2018-08-30T08:53:00.769Z,1013.41
2018-08-30T08:54:00.692Z,1013.46
2018-08-30T08:55:00.598Z,1013.44
2018-08-30T08:56:00.777Z,1013.42
2018-08-30T08:57:00.604Z,1013.45
2018-08-30T08:58:00.608Z,1013.41
2018-08-30T08:59:00.711Z,1013.46
2018-08-30T09:00:00.693Z,1013.47
2018-08-30T09:01:00.722Z,1013.46
2018-08-30T09:02:01.145Z,1013.40
2018-08-30T09:03:00.609Z,1013.41
2018-08-30T09:04:00.521Z,1013.40
2018-08-30T09:05:00.593Z,1013.45
2018-08-30T09:06:00.772Z,1013.39
2018-08-30T09:07:00.556Z,1013.42
2018-08-30T09:08:00.729Z,1013.36
2018-08-30T09:09:00.708Z,1013.29
2018-08-30T09:10:00.429Z,1013.31
2018-08-30T09:11:00.699Z,1013.35
2018-08-30T09:12:00.426Z,1013.36
2018-08-30T09:13:00.413Z,1013.34
2018-08-30T09:14:00.565Z,1013.36
2018-08-30T09:15:00.394Z,1013.40
2018-08-30T09:16:00.672Z,1013.33
2018-08-30T09:17:00.553Z,1013.38
2018-08-30T09:18:00.658Z,1013.39
2018-08-30T09:19:00.459Z,1013.44
2018-08-30T09:20:00.598Z,1013.42
2018-08-30T09:21:00.378Z,1013.50
2018-08-30T09:22:00.397Z,1013.41
2018-08-30T09:23:00.313Z,1013.40
2018-08-30T09:24:02.209Z,1013.43
2018-08-30T09:25:00.560Z,1013.45
2018-08-30T09:26:00.262Z,1013.44
2018-08-30T09:27:00.259Z,1013.46
2018-08-30T09:28:00.283Z,1013.49
2018-08-30T09:29:00.296Z,1013.42
2018-08-30T09:30:00.285Z,1013.45
2018-08-30T09:31:00.524Z,1013.47
2018-08-30T09:32:00.401Z,1013.45
2018-08-30T09:33:00.564Z,1013.48
2018-08-30T09:34:00.779Z,1013.49
2018-08-30T09:35:00.173Z,1013.45
2018-08-30T09:36:00.441Z,1013.53
2018-08-30T09:37:00.354Z,1013.55
2018-08-30T09:38:00.150Z,1013.54
2018-08-30T09:39:00.185Z,1013.60
2018-08-30T09:40:05.999Z,1013.62
2018-08-30T09:41:00.124Z,1013.57
2018-08-30T09:42:00.379Z,1013.67
2018-08-30T09:43:00.088Z,1013.56
2018-08-30T09:44:00.076Z,1013.58
2018-08-30T09:45:00.059Z,1013.54
2018-08-30T09:46:00.318Z,1013.53
2018-08-30T09:47:00.133Z,1013.47
2018-08-30T09:48:00.044Z,1013.51
2018-08-30T09:49:00.296Z,1013.47
2018-08-30T09:50:00.001Z,1013.48
2018-08-30T09:50:59.999Z,1013.49
2018-08-30T09:52:00.293Z,1013.46
2018-08-30T09:53:00.239Z,1013.49
2018-08-30T09:53:59.996Z,1013.48
2018-08-30T09:55:00.248Z,1013.42
2018-08-30T09:55:59.968Z,1013.50
2018-08-30T09:56:59.987Z,1013.47
2018-08-30T09:58:00.201Z,1013.48
2018-08-30T09:58:59.958Z,1013.45
2018-08-30T09:59:59.999Z,1013.43
2018-08-30T10:01:00.057Z,1013.47
2018-08-30T10:01:59.896Z,1013.51
2018-08-30T10:02:59.872Z,1013.48
2018-08-30T10:03:59.900Z,1013.49
2018-08-30T10:05:00.314Z,1013.53
2018-08-30T10:05:59.828Z,1013.47
2018-08-30T10:06:59.931Z,1013.47
2018-08-30T10:07:59.823Z,1013.49
2018-08-30T10:08:59.829Z,1013.41
2018-08-30T10:09:59.870Z,1013.47
2018-08-30T10:10:59.872Z,1013.42
2018-08-30T10:11:59.846Z,1013.40
2018-08-30T10:12:59.747Z,1013.44
2018-08-30T10:13:59.907Z,1013.39
2018-08-30T10:14:59.742Z,1013.42
2018-08-30T10:15:59.836Z,1013.46
2018-08-30T10:16:59.996Z,1013.42
2018-08-30T10:17:59.740Z,1013.43
2018-08-30T10:18:59.740Z,1013.46
2018-08-30T10:19:59.690Z,1013.41
2018-08-30T10:21:00.977Z,1013.38
2018-08-30T10:21:59.761Z,1013.51
2018-08-30T10:22:59.912Z,1013.61
2018-08-30T10:23:59.710Z,1013.55
2018-08-30T10:24:59.654Z,1013.67
2018-08-30T10:25:59.683Z,1013.60
2018-08-30T10:26:59.605Z,1013.62
2018-08-30T10:27:59.685Z,1013.54
2018-08-30T10:28:59.672Z,1013.65
2018-08-30T10:29:59.826Z,1013.61
2018-08-30T10:30:59.828Z,1013.67
2018-08-30T10:31:59.941Z,1013.63
2018-08-30T10:32:59.538Z,1013.62
2018-08-30T10:34:00.135Z,1013.59
2018-08-30T10:34:59.515Z,1013.55
2018-08-30T10:36:00.354Z,1013.54
2018-08-30T10:36:59.916Z,1013.57
2018-08-30T10:37:59.896Z,1013.55
2018-08-30T10:38:59.817Z,1013.57
2018-08-30T10:39:59.462Z,1013.54
2018-08-30T10:40:59.477Z,1013.55
2018-08-30T10:41:59.800Z,1013.55
2018-08-30T10:42:59.897Z,1013.50
2018-08-30T10:43:59.444Z,1013.51
2018-08-30T10:44:59.725Z,1013.49
2018-08-30T10:45:59.387Z,1013.53
2018-08-30T10:46:59.504Z,1013.43
2018-08-30T10:47:59.646Z,1013.54
2018-08-30T10:48:59.372Z,1013.49
2018-08-30T10:49:59.664Z,1013.56
2018-08-30T10:50:59.692Z,1013.53
2018-08-30T10:51:59.337Z,1013.61
2018-08-30T10:52:59.440Z,1013.55
2018-08-30T10:53:59.325Z,1013.58
2018-08-30T10:54:59.362Z,1013.53
2018-08-30T10:55:59.354Z,1013.55
2018-08-30T10:56:59.269Z,1013.54
2018-08-30T10:57:59.392Z,1013.55
2018-08-30T10:58:59.962Z,1013.51
2018-08-30T10:59:59.648Z,1013.46
2018-08-30T11:00:59.628Z,1013.52
2018-08-30T11:01:59.366Z,1013.52
2018-08-30T11:02:59.373Z,1013.56
2018-08-30T11:03:59.478Z,1013.60
2018-08-30T11:04:59.215Z,1013.58
2018-08-30T11:05:59.193Z,1013.61
2018-08-30T11:06:59.195Z,1013.71
2018-08-30T11:07:59.267Z,1013.62
2018-08-30T11:08:59.409Z,1013.63
2018-08-30T11:09:59.451Z,1013.71
2018-08-30T11:10:59.128Z,1013.61
2018-08-30T11:11:59.142Z,1013.62
2018-08-30T11:12:59.373Z,1013.61
2018-08-30T11:13:59.804Z,1013.62
2018-08-30T11:14:59.224Z,1013.63
2018-08-30T11:15:59.256Z,1013.68
2018-08-30T11:16:59.069Z,1013.73
2018-08-30T11:17:59.063Z,1013.73
2018-08-30T11:18:59.173Z,1013.73
2018-08-30T11:19:59.049Z,1013.67
2018-08-30T11:20:59.146Z,1013.69
2018-08-30T11:21:59.022Z,1013.67
2018-08-30T11:23:00.369Z,1013.73
2018-08-30T11:23:59.254Z,1013.73
2018-08-30T11:24:59.250Z,1013.71
2018-08-30T11:25:59.120Z,1013.69
2018-08-30T11:26:58.951Z,1013.71
2018-08-30T11:27:58.963Z,1013.72
2018-08-30T11:28:58.996Z,1013.74
2018-08-30T11:29:59.977Z,1013.74
2018-08-30T11:30:59.453Z,1013.67
2018-08-30T11:32:00.347Z,1013.65
2018-08-30T11:32:59.015Z,1013.73
2018-08-30T11:33:59.000Z,1013.74
2018-08-30T11:34:59.338Z,1013.65
2018-08-30T11:35:59.187Z,1013.68
2018-08-30T11:36:58.851Z,1013.72
2018-08-30T11:37:59.285Z,1013.72
2018-08-30T11:38:59.000Z,1013.75
2018-08-30T11:40:00.188Z,1013.72
2018-08-30T11:40:58.942Z,1013.73
2018-08-30T11:41:58.921Z,1013.73
2018-08-30T11:42:58.778Z,1013.72
2018-08-30T11:43:58.780Z,1013.74
2018-08-30T11:45:00.031Z,1013.73
2018-08-30T11:45:58.977Z,1013.76
2018-08-30T11:46:58.728Z,1013.77
2018-08-30T11:47:58.769Z,1013.75
2018-08-30T11:48:58.735Z,1013.70
2018-08-30T11:49:58.826Z,1013.69
2018-08-30T11:50:59.365Z,1013.76
2018-08-30T11:51:58.825Z,1013.75
2018-08-30T11:52:57.835Z,1013.75
2018-08-30T11:53:58.702Z,1013.73
2018-08-30T11:54:58.673Z,1013.77
2018-08-30T11:55:58.715Z,1013.74
2018-08-30T11:56:58.996Z,1013.74
2018-08-30T11:57:58.808Z,1013.70
2018-08-30T11:58:58.742Z,1013.71
2018-08-30T11:59:58.856Z,1013.72
2018-08-30T12:00:58.733Z,1013.69
2018-08-30T12:01:58.834Z,1013.74
2018-08-30T12:02:58.976Z,1013.72
2018-08-30T12:03:58.741Z,1013.66
2018-08-30T12:04:58.649Z,1013.72
2018-08-30T12:05:58.539Z,1013.75
2018-08-30T12:06:59.369Z,1013.75